createdAt,value
2022-08-01T00:00:27.210Z,63.62
2022-08-01T00:01:28.786Z,63.65
2022-08-01T00:02:32.073Z,63.80
2022-08-01T00:03:33.852Z,64.02
2022-08-01T00:04:35.432Z,63.81
2022-08-01T00:05:37.068Z,64.26
2022-08-01T00:06:38.658Z,64.60
2022-08-01T00:07:40.249Z,64.40
2022-08-01T00:08:41.835Z,64.35
2022-08-01T00:09:43.511Z,65.08
2022-08-01T00:10:45.130Z,65.16
2022-08-01T00:11:46.735Z,64.75
2022-08-01T00:13:01.387Z,65.13
2022-08-01T00:14:03.654Z,65.22
2022-08-01T00:15:07.787Z,65.62
2022-08-01T00:16:09.659Z,65.61
2022-08-01T00:17:11.225Z,65.77
2022-08-01T00:18:12.790Z,65.81
2022-08-01T00:19:14.532Z,66.31
2022-08-01T00:20:16.518Z,66.39
2022-08-01T00:21:18.992Z,66.65
2022-08-01T00:22:20.690Z,67.59
2022-08-01T00:23:22.283Z,67.88
2022-08-01T00:24:24.007Z,67.32
2022-08-01T00:25:34.055Z,67.63
2022-08-01T00:26:36.281Z,67.88
2022-08-01T00:27:38.091Z,68.21
2022-08-01T00:28:40.000Z,69.23
2022-08-01T00:30:12.696Z,69.34
2022-08-01T00:31:03.648Z,69.17
2022-08-01T00:32:05.922Z,69.61
2022-08-01T00:33:07.701Z,69.00
2022-08-01T00:34:09.353Z,69.39
2022-08-01T00:35:11.470Z,69.48
2022-08-01T00:36:13.297Z,69.37
2022-08-01T00:37:16.095Z,69.51
2022-08-01T00:38:17.879Z,69.36
2022-08-01T00:39:19.452Z,70.21
2022-08-01T00:40:21.307Z,70.06
2022-08-01T00:41:22.889Z,69.82
2022-08-01T00:42:24.523Z,70.31
2022-08-01T00:43:26.091Z,70.43
2022-08-01T00:44:28.252Z,70.62
2022-08-01T00:45:29.887Z,71.21
2022-08-01T00:46:31.550Z,71.21
2022-08-01T00:47:33.176Z,71.31
2022-08-01T00:48:34.788Z,71.17
2022-08-01T00:49:36.932Z,71.27
2022-08-01T00:50:39.224Z,70.08
2022-08-01T00:51:41.658Z,70.75
2022-08-01T00:52:44.176Z,70.73
2022-08-01T00:53:54.056Z,70.57
2022-08-01T00:54:56.639Z,71.25
2022-08-01T00:55:58.371Z,71.19
2022-08-01T00:57:00.301Z,71.08
2022-08-01T00:58:05.979Z,70.44
2022-08-01T00:59:09.717Z,69.40
2022-08-01T01:00:12.086Z,69.11
2022-08-01T01:01:13.978Z,69.49
2022-08-01T01:02:16.081Z,69.78
2022-08-01T01:03:17.753Z,69.78
2022-08-01T01:04:19.363Z,69.79
2022-08-01T01:05:21.356Z,69.00
2022-08-01T01:07:09.940Z,68.81
2022-08-01T01:08:27.452Z,68.69
2022-08-01T01:09:31.532Z,68.70
2022-08-01T01:10:41.581Z,68.03
2022-08-01T01:12:01.418Z,69.27
2022-08-01T01:13:07.826Z,69.08
2022-08-01T01:14:24.725Z,69.70
2022-08-01T01:15:42.527Z,69.00
2022-08-01T01:16:46.571Z,68.52
2022-08-01T01:17:56.451Z,67.85
2022-08-01T01:19:03.962Z,68.08
2022-08-01T01:20:07.777Z,67.84
2022-08-01T01:21:31.988Z,67.90
2022-08-01T01:22:47.226Z,67.39
2022-08-01T01:24:08.624Z,67.09
2022-08-01T01:25:37.876Z,66.69
2022-08-01T01:27:07.022Z,66.60
2022-08-01T01:28:28.085Z,66.14
2022-08-01T01:29:59.874Z,65.93
2022-08-01T01:30:59.315Z,65.84
2022-08-01T01:32:40.901Z,65.71
2022-08-01T01:33:47.055Z,65.24
2022-08-01T01:34:53.829Z,65.70
2022-08-01T01:36:00.403Z,65.51
2022-08-01T01:37:04.217Z,65.17
2022-08-01T01:38:10.590Z,65.18
2022-08-01T01:39:15.116Z,65.25
2022-08-01T01:40:18.941Z,64.71
2022-08-01T01:41:21.963Z,65.33
2022-08-01T01:42:26.647Z,67.03
2022-08-01T01:43:33.519Z,67.05
2022-08-01T01:44:37.527Z,68.16
2022-08-01T01:45:41.203Z,68.97
2022-08-01T01:46:43.765Z,69.84
2022-08-01T01:47:46.956Z,70.67
2022-08-01T01:48:49.750Z,71.50
2022-08-01T01:49:53.687Z,71.81
2022-08-01T01:50:57.674Z,72.02
2022-08-01T01:52:02.746Z,73.07
2022-08-01T01:53:06.827Z,73.93
2022-08-01T01:54:17.768Z,73.87
2022-08-01T01:55:22.015Z,74.18
2022-08-01T01:56:25.076Z,74.31
2022-08-01T01:57:28.796Z,74.50
2022-08-01T01:58:33.775Z,74.91
2022-08-01T01:59:39.016Z,74.49
2022-08-01T02:00:43.300Z,75.00
2022-08-01T02:02:08.776Z,74.98
2022-08-01T02:03:13.271Z,75.32
2022-08-01T02:04:15.449Z,75.00
2022-08-01T02:05:17.153Z,75.64
2022-08-01T02:06:19.456Z,75.82
2022-08-01T02:07:25.031Z,76.55
2022-08-01T02:08:28.145Z,76.21
2022-08-01T02:09:34.975Z,76.50
2022-08-01T02:10:38.507Z,76.44
2022-08-01T02:12:08.274Z,76.42
2022-08-01T02:13:07.530Z,76.25
2022-08-01T02:14:11.261Z,76.00
2022-08-01T02:15:14.226Z,76.04
2022-08-01T02:16:18.168Z,76.57
2022-08-01T02:17:21.747Z,76.25
2022-08-01T02:18:23.973Z,75.57
2022-08-01T02:19:26.020Z,75.42
2022-08-01T02:21:45.535Z,74.27
2022-08-01T02:23:12.446Z,74.36
2022-08-01T02:24:20.370Z,74.60
2022-08-01T02:25:40.146Z,74.86
2022-08-01T02:27:11.645Z,74.55
2022-08-01T02:28:35.006Z,74.13
2022-08-01T02:29:48.009Z,73.78
2022-08-01T02:30:50.916Z,73.27
2022-08-01T02:31:55.646Z,73.61
2022-08-01T02:33:03.150Z,72.82
2022-08-01T02:34:08.106Z,72.60
2022-08-01T02:35:19.195Z,72.46
2022-08-01T02:36:30.191Z,72.22
2022-08-01T02:37:37.360Z,71.95
2022-08-01T02:38:47.556Z,71.99
2022-08-01T02:39:53.516Z,71.96
2022-08-01T02:40:58.944Z,71.64
2022-08-01T02:42:05.939Z,71.62
2022-08-01T02:43:10.258Z,71.46
2022-08-01T02:44:19.280Z,71.36
2022-08-01T02:45:25.415Z,70.74
2022-08-01T02:46:40.789Z,70.51
2022-08-01T02:47:43.980Z,70.52
2022-08-01T02:48:46.652Z,70.87
2022-08-01T02:49:53.341Z,70.94
2022-08-01T02:50:59.591Z,71.33
2022-08-01T02:52:05.236Z,71.83
2022-08-01T02:53:09.084Z,71.79
2022-08-01T02:54:12.498Z,72.21
2022-08-01T02:55:15.104Z,72.83
2022-08-01T02:56:19.491Z,73.46
2022-08-01T02:57:22.533Z,74.11
2022-08-01T02:58:29.260Z,74.32
2022-08-01T02:59:34.996Z,74.74
2022-08-01T03:00:37.332Z,75.40
2022-08-01T03:01:42.030Z,75.40
2022-08-01T03:02:45.639Z,75.91
2022-08-01T03:03:47.919Z,75.95
2022-08-01T03:04:56.609Z,75.49
2022-08-01T03:06:00.324Z,75.34
2022-08-01T03:07:05.709Z,74.78
2022-08-01T03:08:14.779Z,74.10
2022-08-01T03:09:17.934Z,74.17
2022-08-01T03:10:20.506Z,73.88
2022-08-01T03:11:25.148Z,73.75
2022-08-01T03:12:30.633Z,73.68
2022-08-01T03:13:34.220Z,73.15
2022-08-01T03:14:39.362Z,72.61
2022-08-01T03:15:44.332Z,72.40
2022-08-01T03:16:47.162Z,71.90
2022-08-01T03:17:50.774Z,71.69
2022-08-01T03:18:55.948Z,71.35
2022-08-01T03:19:59.867Z,71.30
2022-08-01T03:21:02.577Z,71.96
2022-08-01T03:22:08.681Z,72.62
2022-08-01T03:23:12.489Z,72.54
2022-08-01T03:24:15.543Z,72.79
2022-08-01T03:25:18.675Z,72.80
2022-08-01T03:26:20.685Z,73.42
2022-08-01T03:27:25.293Z,73.41
2022-08-01T03:28:27.920Z,73.22
2022-08-01T03:29:33.345Z,73.03
2022-08-01T03:30:37.862Z,72.37
2022-08-01T03:31:43.857Z,72.02
2022-08-01T03:32:45.643Z,71.97
2022-08-01T03:33:47.253Z,72.18
2022-08-01T03:34:49.030Z,71.85
2022-08-01T03:35:55.027Z,71.73
2022-08-01T03:37:31.916Z,71.78
2022-08-01T03:38:39.139Z,71.45
2022-08-01T03:39:51.416Z,71.51
2022-08-01T03:41:16.933Z,71.20
2022-08-01T03:42:21.809Z,70.94
2022-08-01T03:43:39.310Z,71.68
2022-08-01T03:44:42.360Z,72.96
2022-08-01T03:45:53.282Z,72.83
2022-08-01T03:47:02.651Z,73.47
2022-08-01T03:48:10.438Z,73.54
2022-08-01T03:49:18.166Z,73.42
2022-08-01T03:50:24.832Z,73.29
2022-08-01T03:51:26.580Z,73.01
2022-08-01T03:52:30.561Z,72.96
2022-08-01T03:53:34.410Z,72.78
2022-08-01T03:54:39.816Z,72.67
2022-08-01T03:55:44.740Z,73.21
2022-08-01T03:56:48.883Z,73.60
2022-08-01T03:57:51.436Z,73.47
2022-08-01T03:58:53.491Z,72.78
2022-08-01T03:59:56.188Z,72.59
2022-08-01T04:00:58.803Z,72.30
2022-08-01T04:02:00.803Z,72.27
2022-08-01T04:03:02.969Z,71.97
2022-08-01T04:04:06.841Z,71.63
2022-08-01T04:05:08.965Z,71.54
2022-08-01T04:06:11.645Z,70.92
2022-08-01T04:07:24.810Z,70.23
2022-08-01T04:08:36.507Z,70.27
2022-08-01T04:09:38.082Z,69.27
2022-08-01T04:10:39.962Z,69.16
2022-08-01T04:12:02.066Z,69.23
2022-08-01T04:13:13.821Z,68.80
2022-08-01T04:14:15.999Z,68.55
2022-08-01T04:15:17.861Z,68.51
2022-08-01T04:16:19.651Z,69.46
2022-08-01T04:17:21.576Z,69.51
2022-08-01T04:18:23.235Z,69.65
2022-08-01T04:19:24.988Z,69.60
2022-08-01T04:20:26.638Z,68.84
2022-08-01T04:21:32.362Z,69.15
2022-08-01T04:22:37.311Z,68.99
2022-08-01T04:23:42.175Z,69.67
2022-08-01T04:24:54.680Z,69.07
2022-08-01T04:26:00.444Z,69.10
2022-08-01T04:27:03.454Z,67.70
2022-08-01T04:28:09.249Z,67.05
2022-08-01T04:29:13.043Z,66.90
2022-08-01T04:30:17.907Z,67.39
2022-08-01T04:31:23.698Z,67.11
2022-08-01T04:32:28.933Z,66.71
2022-08-01T04:33:32.051Z,66.53
2022-08-01T04:34:34.785Z,65.48
2022-08-01T04:36:03.705Z,65.75
2022-08-01T04:37:02.043Z,65.93
2022-08-01T04:38:05.168Z,63.91
2022-08-01T04:39:07.150Z,63.46
2022-08-01T04:40:10.023Z,62.71
2022-08-01T04:41:14.078Z,61.79
2022-08-01T04:42:16.899Z,61.48
2022-08-01T04:43:26.887Z,60.36
2022-08-01T04:44:32.574Z,60.50
2022-08-01T04:45:36.416Z,59.88
2022-08-01T04:46:38.747Z,59.25
2022-08-01T04:47:41.747Z,59.24
2022-08-01T04:48:43.613Z,59.14
2022-08-01T04:49:48.963Z,58.92
2022-08-01T04:50:51.309Z,58.25
2022-08-01T04:52:01.109Z,57.92
2022-08-01T04:53:04.099Z,57.51
2022-08-01T04:54:08.387Z,57.08
2022-08-01T04:55:11.128Z,56.79
2022-08-01T04:56:16.369Z,57.66
2022-08-01T04:57:17.988Z,57.15
2022-08-01T04:58:19.596Z,56.72
2022-08-01T04:59:39.740Z,56.30
2022-08-01T05:00:41.378Z,55.83
2022-08-01T05:01:43.020Z,56.15
2022-08-01T05:02:44.916Z,55.06
2022-08-01T05:03:46.485Z,56.44
2022-08-01T05:04:48.465Z,56.29
2022-08-01T05:05:50.142Z,56.22
2022-08-01T05:06:51.769Z,55.83
2022-08-01T05:07:53.343Z,54.62
2022-08-01T05:08:54.969Z,52.69
2022-08-01T05:09:56.573Z,51.73
2022-08-01T05:10:58.186Z,50.90
2022-08-01T05:12:02.698Z,50.91
2022-08-01T05:13:04.438Z,52.10
2022-08-01T05:14:07.640Z,52.23
2022-08-01T05:15:15.192Z,52.74
2022-08-01T05:16:17.991Z,52.89
2022-08-01T05:17:19.622Z,53.22
2022-08-01T05:18:26.065Z,53.32
2022-08-01T05:19:32.839Z,53.07
2022-08-01T05:20:34.469Z,53.53
2022-08-01T05:21:36.606Z,53.70
2022-08-01T05:22:38.860Z,54.03
2022-08-01T05:23:43.070Z,54.48
2022-08-01T05:24:45.397Z,53.90
2022-08-01T05:25:56.858Z,54.52
2022-08-01T05:27:00.730Z,54.92
2022-08-01T05:28:03.756Z,54.64
2022-08-01T05:29:05.475Z,54.46
2022-08-01T05:30:10.744Z,53.29
2022-08-01T05:31:12.410Z,53.42
2022-08-01T05:32:14.055Z,53.79
2022-08-01T05:33:15.670Z,54.00
2022-08-01T05:34:17.354Z,53.11
2022-08-01T05:35:18.990Z,53.14
2022-08-01T05:36:20.573Z,52.96
2022-08-01T05:37:22.237Z,52.39
2022-08-01T05:38:23.856Z,51.68
2022-08-01T05:39:25.462Z,51.62
2022-08-01T05:40:27.079Z,50.75
2022-08-01T05:41:28.794Z,49.66
2022-08-01T05:42:30.930Z,49.66
2022-08-01T05:43:32.636Z,49.21
2022-08-01T05:44:34.556Z,48.95
2022-08-01T05:45:36.156Z,48.20
2022-08-01T05:46:38.599Z,48.48
2022-08-01T05:47:43.087Z,48.20
2022-08-01T05:48:44.781Z,47.39
2022-08-01T05:49:46.785Z,48.27
2022-08-01T05:50:48.851Z,48.67
2022-08-01T05:51:50.641Z,48.38
2022-08-01T05:52:52.248Z,48.26
2022-08-01T05:53:54.871Z,48.88
2022-08-01T05:54:56.555Z,48.32
2022-08-01T05:55:58.132Z,48.07
2022-08-01T05:57:02.610Z,46.77
2022-08-01T05:58:04.263Z,47.01
2022-08-01T05:59:05.929Z,46.64
2022-08-01T06:00:08.323Z,46.47
2022-08-01T06:01:09.971Z,47.32
2022-08-01T06:02:11.759Z,47.81
2022-08-01T06:03:13.961Z,46.78
2022-08-01T06:04:15.538Z,47.98
2022-08-01T06:05:19.354Z,47.64
2022-08-01T06:06:25.560Z,46.33
2022-08-01T06:07:27.500Z,46.07
2022-08-01T06:08:29.710Z,46.61
2022-08-01T06:09:31.946Z,46.29
2022-08-01T06:10:34.376Z,46.60
2022-08-01T06:11:36.426Z,46.42
2022-08-01T06:12:38.892Z,46.44
2022-08-01T06:13:45.601Z,46.22
2022-08-01T06:14:50.174Z,46.23
2022-08-01T06:15:56.378Z,44.37
2022-08-01T06:16:59.216Z,44.22
2022-08-01T06:18:01.466Z,43.62
2022-08-01T06:19:03.230Z,44.00
2022-08-01T06:20:07.352Z,43.80
2022-08-01T06:21:10.073Z,43.24
2022-08-01T06:22:11.807Z,41.98
2022-08-01T06:23:31.668Z,41.82
2022-08-01T06:24:34.523Z,41.64
2022-08-01T06:25:36.416Z,41.92
2022-08-01T06:26:38.271Z,41.19
2022-08-01T06:27:40.144Z,41.97
2022-08-01T06:28:42.203Z,41.04
2022-08-01T06:29:53.638Z,41.19
2022-08-01T06:30:56.213Z,41.76
2022-08-01T06:31:57.852Z,41.56
2022-08-01T06:33:01.123Z,41.41
2022-08-01T06:34:03.284Z,41.44
2022-08-01T06:35:05.463Z,41.31
2022-08-01T06:36:07.583Z,40.58
2022-08-01T06:37:10.104Z,39.32
2022-08-01T06:38:12.566Z,38.54
2022-08-01T06:39:14.237Z,38.69
2022-08-01T06:40:17.560Z,38.61
2022-08-01T06:41:20.064Z,38.96
2022-08-01T06:42:21.770Z,39.55
2022-08-01T06:43:24.196Z,38.97
2022-08-01T06:44:25.956Z,38.68
2022-08-01T06:45:28.092Z,38.34
2022-08-01T06:46:32.180Z,38.94
2022-08-01T06:47:34.495Z,38.04
2022-08-01T06:48:40.346Z,37.39
2022-08-01T06:49:44.199Z,37.94
2022-08-01T06:50:46.163Z,38.18
2022-08-01T06:51:47.753Z,37.74
2022-08-01T06:52:49.845Z,37.61
2022-08-01T06:53:52.515Z,37.55
2022-08-01T06:54:55.045Z,37.55
2022-08-01T06:55:57.298Z,37.89
2022-08-01T06:56:59.354Z,37.81
2022-08-01T06:58:01.745Z,37.67
2022-08-01T06:59:03.504Z,36.97
2022-08-01T07:00:12.455Z,36.23
2022-08-01T07:01:14.390Z,36.37
2022-08-01T07:02:16.511Z,36.69
2022-08-01T07:03:18.144Z,36.41
2022-08-01T07:04:20.289Z,36.42
2022-08-01T07:05:24.491Z,36.73
2022-08-01T07:06:28.353Z,36.86
2022-08-01T07:07:30.448Z,36.71
2022-08-01T07:08:32.391Z,36.74
2022-08-01T07:09:34.744Z,36.44
2022-08-01T07:10:37.013Z,36.28
2022-08-01T07:11:38.890Z,36.70
2022-08-01T07:12:42.887Z,36.54
2022-08-01T07:13:46.970Z,37.29
2022-08-01T07:14:49.687Z,37.75
2022-08-01T07:15:52.967Z,37.38
2022-08-01T07:16:55.190Z,36.78
2022-08-01T07:17:58.282Z,37.04
2022-08-01T07:19:00.075Z,37.26
2022-08-01T07:20:02.952Z,37.04
2022-08-01T07:21:04.780Z,36.49
2022-08-01T07:22:06.947Z,36.28
2022-08-01T07:23:09.402Z,36.30
2022-08-01T07:24:15.522Z,36.11
2022-08-01T07:25:17.127Z,35.20
2022-08-01T07:26:18.895Z,35.36
2022-08-01T07:27:25.636Z,35.37
2022-08-01T07:28:28.960Z,35.17
2022-08-01T07:29:31.054Z,35.14
2022-08-01T07:30:32.864Z,34.97
2022-08-01T07:31:35.296Z,34.95
2022-08-01T07:32:37.277Z,34.42
2022-08-01T07:33:47.935Z,33.66
2022-08-01T07:34:52.122Z,34.20
2022-08-01T07:35:53.848Z,34.34
2022-08-01T07:36:55.764Z,34.12
2022-08-01T07:37:57.433Z,34.00
2022-08-01T07:38:59.864Z,33.61
2022-08-01T07:40:05.402Z,32.99
2022-08-01T07:41:07.073Z,31.07
2022-08-01T07:42:08.894Z,31.22
2022-08-01T07:43:10.732Z,31.94
2022-08-01T07:44:12.459Z,32.23
2022-08-01T07:45:15.248Z,32.58
2022-08-01T07:46:17.426Z,32.59
2022-08-01T07:47:26.167Z,33.00
2022-08-01T07:48:31.134Z,32.55
2022-08-01T07:49:37.768Z,32.99
2022-08-01T07:50:41.426Z,33.68
2022-08-01T07:51:43.236Z,33.96
2022-08-01T07:53:05.454Z,35.05
2022-08-01T07:54:08.118Z,35.28
2022-08-01T07:55:11.368Z,35.06
2022-08-01T07:56:12.937Z,35.86
2022-08-01T07:57:14.569Z,35.74
2022-08-01T07:58:17.073Z,35.96
2022-08-01T07:59:24.071Z,36.08
2022-08-01T08:00:29.488Z,36.55
2022-08-01T08:01:31.495Z,36.27
2022-08-01T08:02:33.433Z,35.80
2022-08-01T08:03:35.495Z,35.73
2022-08-01T08:04:37.182Z,36.75
2022-08-01T08:05:57.639Z,36.00
2022-08-01T08:07:00.723Z,35.54
2022-08-01T08:08:05.426Z,35.90
2022-08-01T08:09:06.988Z,35.45
2022-08-01T08:10:09.323Z,35.11
2022-08-01T08:11:11.530Z,35.11
2022-08-01T08:12:13.299Z,35.81
2022-08-01T08:13:14.893Z,35.90
2022-08-01T08:14:19.689Z,35.74
2022-08-01T08:15:21.429Z,36.57
2022-08-01T08:16:23.409Z,35.58
2022-08-01T08:17:26.473Z,35.94
2022-08-01T08:18:28.477Z,35.90
2022-08-01T08:19:37.336Z,35.73
2022-08-01T08:20:40.298Z,35.84
2022-08-01T08:21:42.472Z,35.51
2022-08-01T08:22:44.223Z,35.32
2022-08-01T08:24:04.836Z,35.38
2022-08-01T08:25:09.137Z,35.38
2022-08-01T08:26:13.866Z,35.63
2022-08-01T08:27:16.205Z,34.89
2022-08-01T08:28:17.874Z,35.71
2022-08-01T08:29:19.848Z,35.93
2022-08-01T08:30:21.713Z,35.27
2022-08-01T08:31:50.746Z,35.10
2022-08-01T08:32:45.528Z,34.85
2022-08-01T08:33:47.125Z,35.61
2022-08-01T08:34:48.721Z,34.87
2022-08-01T08:35:53.629Z,35.70
2022-08-01T08:36:57.309Z,36.49
2022-08-01T08:38:00.595Z,36.79
2022-08-01T08:39:04.159Z,36.23
2022-08-01T08:40:06.644Z,36.16
2022-08-01T08:41:09.234Z,36.17
2022-08-01T08:42:12.907Z,36.45
2022-08-01T08:43:16.914Z,36.02
2022-08-01T08:44:21.001Z,35.33
2022-08-01T08:45:22.746Z,35.69
2022-08-01T08:46:52.830Z,35.97
2022-08-01T08:47:55.743Z,36.68
2022-08-01T08:48:57.561Z,37.23
2022-08-01T08:50:01.376Z,35.70
2022-08-01T08:51:03.270Z,36.71
2022-08-01T08:52:08.767Z,37.35
2022-08-01T08:53:12.943Z,36.78
2022-08-01T08:54:20.654Z,36.01
2022-08-01T08:55:24.166Z,36.75
2022-08-01T08:56:28.365Z,35.36
2022-08-01T08:57:30.270Z,36.22
2022-08-01T08:58:35.236Z,36.03
2022-08-01T08:59:38.390Z,35.71
2022-08-01T09:00:41.717Z,35.56
2022-08-01T09:01:43.714Z,34.75
2022-08-01T09:02:47.677Z,35.65
2022-08-01T09:03:49.471Z,36.02
2022-08-01T09:04:51.762Z,35.27
2022-08-01T09:05:54.120Z,33.92
2022-08-01T09:06:55.968Z,35.13
2022-08-01T09:07:57.785Z,34.77
2022-08-01T09:09:00.362Z,34.25
2022-08-01T09:10:02.230Z,34.15
2022-08-01T09:11:04.949Z,34.47
2022-08-01T09:12:06.790Z,36.11
2022-08-01T09:13:13.238Z,35.58
2022-08-01T09:14:23.416Z,35.60
2022-08-01T09:15:39.505Z,36.30
2022-08-01T09:16:48.603Z,35.53
2022-08-01T09:17:51.139Z,35.08
2022-08-01T09:18:53.822Z,35.29
2022-08-01T09:19:57.723Z,35.80
2022-08-01T09:21:06.968Z,35.60
2022-08-01T09:22:11.698Z,35.69
2022-08-01T09:23:35.547Z,35.65
2022-08-01T09:24:38.476Z,35.47
2022-08-01T09:25:53.825Z,35.24
2022-08-01T09:27:00.033Z,35.73
2022-08-01T09:28:06.846Z,34.84
2022-08-01T09:29:38.222Z,35.71
2022-08-01T09:30:40.152Z,36.20
2022-08-01T09:31:47.704Z,35.56
2022-08-01T09:33:11.118Z,36.14
2022-08-01T09:34:32.195Z,36.39
2022-08-01T09:35:43.957Z,36.41
2022-08-01T09:36:57.318Z,36.24
2022-08-01T09:38:21.786Z,36.86
2022-08-01T09:39:24.778Z,35.78
2022-08-01T09:40:26.401Z,35.61
2022-08-01T09:41:39.903Z,35.44
2022-08-01T09:42:42.421Z,35.07
2022-08-01T09:43:52.147Z,35.44
2022-08-01T09:44:55.734Z,36.09
2022-08-01T09:45:58.514Z,35.37
2022-08-01T09:47:00.340Z,35.68
2022-08-01T09:48:10.823Z,35.98
2022-08-01T09:49:12.738Z,35.57
2022-08-01T09:50:14.837Z,35.00
2022-08-01T09:51:59.816Z,35.35
2022-08-01T09:53:01.446Z,37.28
2022-08-01T09:54:07.708Z,35.95
2022-08-01T09:55:10.535Z,36.06
2022-08-01T09:56:13.510Z,35.18
2022-08-01T09:57:17.040Z,36.35
2022-08-01T09:58:18.899Z,36.40
2022-08-01T09:59:21.106Z,36.38
2022-08-01T10:00:44.205Z,35.79
2022-08-01T10:01:48.364Z,36.51
2022-08-01T10:02:50.010Z,37.10
2022-08-01T10:04:11.397Z,36.52
2022-08-01T10:05:20.979Z,35.70
2022-08-01T10:06:24.786Z,36.03
2022-08-01T10:07:27.707Z,37.30
2022-08-01T10:08:48.824Z,36.37
2022-08-01T10:09:51.408Z,36.73
2022-08-01T10:11:13.069Z,35.99
2022-08-01T10:12:21.362Z,36.66
2022-08-01T10:13:23.061Z,36.17
2022-08-01T10:14:26.755Z,36.93
2022-08-01T10:15:37.436Z,37.00
2022-08-01T10:16:40.337Z,36.48
2022-08-01T10:17:50.508Z,36.56
2022-08-01T10:18:55.019Z,36.57
2022-08-01T10:20:01.415Z,37.76
2022-08-01T10:21:08.594Z,36.49
2022-08-01T10:22:18.885Z,36.69
2022-08-01T10:23:20.468Z,36.90
2022-08-01T10:24:23.639Z,37.21
2022-08-01T10:25:42.830Z,37.09
2022-08-01T10:26:48.482Z,36.78
2022-08-01T10:27:51.340Z,37.69
2022-08-01T10:28:54.990Z,37.63
2022-08-01T10:30:07.445Z,37.25
2022-08-01T10:31:19.300Z,36.86
2022-08-01T10:32:33.656Z,35.62
2022-08-01T10:33:52.384Z,35.68
2022-08-01T10:34:55.993Z,37.08
2022-08-01T10:35:58.549Z,36.38
2022-08-01T10:37:03.251Z,36.27
2022-08-01T10:38:10.882Z,36.60
2022-08-01T10:39:15.871Z,36.90
2022-08-01T10:40:30.774Z,36.40
2022-08-01T10:41:34.479Z,36.41
2022-08-01T10:42:36.865Z,36.08
2022-08-01T10:43:38.532Z,35.22
2022-08-01T10:44:41.574Z,35.87
2022-08-01T10:45:46.220Z,35.30
2022-08-01T10:46:52.779Z,35.26
2022-08-01T10:48:05.340Z,35.84
2022-08-01T10:49:16.498Z,36.22
2022-08-01T10:50:33.976Z,36.50
2022-08-01T10:51:52.988Z,37.16
2022-08-01T10:53:23.989Z,36.79
2022-08-01T10:54:39.848Z,36.08
2022-08-01T10:55:57.069Z,36.49
2022-08-01T10:57:01.494Z,36.67
2022-08-01T10:58:09.232Z,36.45
2022-08-01T10:59:49.859Z,37.06
2022-08-01T11:01:16.114Z,36.70
2022-08-01T11:02:32.191Z,37.56
2022-08-01T11:03:56.128Z,37.07
2022-08-01T11:05:20.657Z,37.38
2022-08-01T11:06:36.331Z,36.94
2022-08-01T11:07:49.962Z,37.56
2022-08-01T11:08:53.379Z,38.02
2022-08-01T11:10:19.812Z,37.34
2022-08-01T11:11:25.547Z,37.47
2022-08-01T11:12:40.296Z,37.33
2022-08-01T11:14:01.829Z,37.86
2022-08-01T11:15:03.597Z,37.18
2022-08-01T11:16:31.274Z,38.08
2022-08-01T11:17:38.155Z,36.47
2022-08-01T11:18:51.764Z,36.06
2022-08-01T11:20:10.423Z,36.69
2022-08-01T11:21:59.347Z,36.30
2022-08-01T11:22:53.536Z,36.14
2022-08-01T11:23:57.757Z,37.34
2022-08-01T11:25:01.274Z,36.61
2022-08-01T11:26:05.894Z,36.13
2022-08-01T11:27:23.556Z,35.94
2022-08-01T11:28:32.625Z,36.34
2022-08-01T11:29:36.649Z,36.09
2022-08-01T11:30:38.737Z,36.07
2022-08-01T11:31:41.883Z,36.87
2022-08-01T11:33:10.239Z,36.55
2022-08-01T11:34:13.317Z,37.50
2022-08-01T11:35:18.018Z,36.62
2022-08-01T11:36:55.992Z,36.63
2022-08-01T11:37:45.461Z,36.93
2022-08-01T11:38:47.074Z,37.33
2022-08-01T11:40:27.826Z,36.98
2022-08-01T11:41:38.442Z,36.39
2022-08-01T11:42:40.998Z,36.77
2022-08-01T11:44:05.650Z,37.20
2022-08-01T11:45:13.322Z,37.56
2022-08-01T11:46:17.689Z,37.50
2022-08-01T11:47:21.242Z,37.65
2022-08-01T11:48:27.891Z,37.43
2022-08-01T11:49:39.288Z,36.55
2022-08-01T11:50:42.220Z,36.94
2022-08-01T11:51:44.558Z,36.89
2022-08-01T11:52:47.208Z,36.56
2022-08-01T11:53:50.441Z,36.36
2022-08-01T11:54:59.249Z,36.87
2022-08-01T11:56:00.994Z,37.14
2022-08-01T11:57:09.869Z,36.60
2022-08-01T11:58:22.388Z,35.80
2022-08-01T11:59:38.343Z,36.03
2022-08-01T12:00:50.733Z,36.07
2022-08-01T12:01:52.589Z,36.25
2022-08-01T12:03:07.720Z,36.06
2022-08-01T12:04:09.349Z,35.46
2022-08-01T12:05:14.086Z,35.96
2022-08-01T12:06:28.204Z,35.38
2022-08-01T12:07:31.299Z,35.85
2022-08-01T12:08:35.343Z,35.13
2022-08-01T12:09:36.931Z,35.37
2022-08-01T12:10:47.204Z,35.31
2022-08-01T12:11:51.781Z,35.86
2022-08-01T12:12:55.635Z,35.99
2022-08-01T12:13:57.520Z,36.15
2022-08-01T12:15:05.903Z,35.76
2022-08-01T12:16:08.917Z,35.51
2022-08-01T12:17:10.574Z,36.03
2022-08-01T12:18:14.008Z,36.57
2022-08-01T12:19:23.187Z,36.09
2022-08-01T12:20:29.778Z,38.00
2022-08-01T12:21:32.119Z,37.17
2022-08-01T12:22:34.281Z,37.87
2022-08-01T12:23:35.873Z,36.94
2022-08-01T12:24:39.610Z,35.77
2022-08-01T12:25:42.054Z,35.49
2022-08-01T12:26:43.742Z,35.65
2022-08-01T12:27:48.055Z,35.39
2022-08-01T12:28:49.600Z,35.20
2022-08-01T12:29:51.227Z,35.78
2022-08-01T12:30:53.097Z,35.58
2022-08-01T12:31:54.740Z,35.01
2022-08-01T12:32:56.959Z,34.82
2022-08-01T12:33:58.552Z,35.01
2022-08-01T12:35:32.926Z,34.86
2022-08-01T12:36:35.302Z,35.59
2022-08-01T12:37:47.696Z,35.08
2022-08-01T12:38:54.044Z,34.14
2022-08-01T12:39:56.661Z,35.01
2022-08-01T12:40:58.989Z,35.28
2022-08-01T12:42:01.173Z,34.64
2022-08-01T12:43:05.406Z,34.78
2022-08-01T12:44:16.060Z,35.19
2022-08-01T12:45:20.905Z,34.74
2022-08-01T12:46:22.773Z,33.81
2022-08-01T12:47:24.957Z,33.85
2022-08-01T12:48:27.828Z,34.35
2022-08-01T12:49:29.887Z,34.01
2022-08-01T12:50:33.044Z,33.23
2022-08-01T12:51:36.123Z,33.87
2022-08-01T12:52:38.426Z,33.73
2022-08-01T12:53:41.743Z,33.72
2022-08-01T12:55:09.559Z,33.65
2022-08-01T12:56:12.092Z,32.80
2022-08-01T12:57:24.621Z,32.50
2022-08-01T12:58:33.139Z,33.08
2022-08-01T12:59:35.249Z,33.68
2022-08-01T13:00:40.079Z,33.71
2022-08-01T13:01:43.064Z,32.93
2022-08-01T13:02:47.275Z,33.43
2022-08-01T13:04:06.693Z,32.42
2022-08-01T13:05:10.521Z,32.67
2022-08-01T13:06:17.547Z,33.52
2022-08-01T13:07:19.787Z,33.58
2022-08-01T13:08:32.496Z,33.30
2022-08-01T13:09:34.078Z,33.20
2022-08-01T13:10:35.692Z,33.58
2022-08-01T13:11:37.329Z,33.59
2022-08-01T13:12:40.488Z,32.86
2022-08-01T13:13:44.590Z,33.65
2022-08-01T13:14:46.152Z,33.13
2022-08-01T13:15:48.501Z,33.24
2022-08-01T13:16:57.226Z,33.46
2022-08-01T13:18:01.669Z,33.10
2022-08-01T13:19:03.367Z,32.74
2022-08-01T13:20:05.709Z,33.63
2022-08-01T13:21:11.876Z,34.35
2022-08-01T13:22:13.653Z,33.82
2022-08-01T13:24:01.294Z,33.67
2022-08-01T13:24:41.753Z,33.33
2022-08-01T13:25:51.702Z,34.08
2022-08-01T13:27:04.109Z,33.55
2022-08-01T13:28:22.746Z,32.81
2022-08-01T13:29:33.626Z,33.37
2022-08-01T13:30:35.252Z,33.54
2022-08-01T13:31:38.276Z,33.71
2022-08-01T13:32:40.903Z,33.93
2022-08-01T13:33:43.829Z,34.18
2022-08-01T13:34:45.559Z,32.87
2022-08-01T13:35:48.685Z,32.69
2022-08-01T13:36:50.590Z,33.64
2022-08-01T13:37:52.171Z,34.05
2022-08-01T13:39:12.330Z,33.19
2022-08-01T13:40:25.644Z,34.14
2022-08-01T13:41:27.688Z,33.56
2022-08-01T13:42:30.332Z,33.61
2022-08-01T13:43:57.690Z,33.69
2022-08-01T13:44:53.777Z,33.83
2022-08-01T13:45:55.378Z,33.68
2022-08-01T13:47:00.026Z,34.14
2022-08-01T13:48:13.064Z,34.07
2022-08-01T13:49:20.567Z,33.77
2022-08-01T13:50:24.536Z,34.55
2022-08-01T13:51:26.224Z,35.11
2022-08-01T13:52:27.814Z,34.38
2022-08-01T13:53:29.776Z,34.01
2022-08-01T13:54:32.657Z,34.95
2022-08-01T13:55:35.515Z,34.83
2022-08-01T13:56:37.385Z,34.94
2022-08-01T13:57:39.058Z,34.37
2022-08-01T13:58:40.757Z,34.67
2022-08-01T13:59:42.487Z,34.72
2022-08-01T14:00:44.358Z,35.40
2022-08-01T14:01:46.300Z,34.72
2022-08-01T14:02:47.950Z,35.25
2022-08-01T14:03:50.117Z,35.22
2022-08-01T14:04:51.748Z,35.30
2022-08-01T14:05:58.607Z,34.77
2022-08-01T14:07:04.240Z,34.82
2022-08-01T14:08:09.751Z,35.33
2022-08-01T14:09:17.804Z,35.53
2022-08-01T14:10:20.738Z,35.90